createdAt,value
2019-03-25T00:01:32.995Z,99.90
2019-03-25T00:04:01.463Z,99.90
2019-03-25T00:06:29.925Z,99.90
2019-03-25T00:09:05.292Z,99.90
2019-03-25T00:11:28.576Z,99.90
2019-03-25T00:13:57.039Z,99.90
2019-03-25T00:16:25.497Z,99.90
2019-03-25T00:18:53.957Z,99.90
2019-03-25T00:21:22.491Z,99.90
2019-03-25T00:23:50.951Z,99.90
2019-03-25T00:26:19.702Z,99.90
2019-03-25T00:28:48.163Z,99.90
2019-03-25T00:31:16.690Z,99.90
2019-03-25T00:33:45.145Z,99.90
2019-03-25T00:36:13.828Z,99.90
2019-03-25T00:38:42.283Z,99.90
2019-03-25T00:41:10.750Z,99.90
2019-03-25T00:43:39.271Z,99.90
2019-03-25T00:46:07.733Z,99.90
2019-03-25T00:48:36.299Z,99.90
2019-03-25T00:51:04.823Z,99.90
2019-03-25T00:53:33.347Z,99.90
2019-03-25T00:56:01.835Z,99.90
2019-03-25T00:58:30.277Z,99.90
2019-03-25T01:00:58.742Z,99.90
2019-03-25T01:03:27.274Z,99.90
2019-03-25T01:05:55.759Z,99.90
2019-03-25T01:08:24.223Z,99.90
2019-03-25T01:10:52.754Z,99.90
2019-03-25T01:13:21.248Z,99.90
2019-03-25T01:15:50.124Z,99.90
2019-03-25T01:18:18.584Z,99.90
2019-03-25T01:20:47.044Z,99.90
2019-03-25T01:23:15.497Z,99.90
2019-03-25T01:25:43.971Z,99.90
2019-03-25T01:28:12.506Z,99.90
2019-03-25T01:30:40.959Z,99.90
2019-03-25T01:33:09.419Z,99.90
2019-03-25T01:35:37.871Z,99.90
2019-03-25T01:38:06.354Z,99.90
2019-03-25T01:40:34.808Z,99.90
2019-03-25T01:43:03.299Z,99.90
2019-03-25T01:45:31.745Z,99.90
2019-03-25T01:48:00.202Z,99.90
2019-03-25T01:50:28.673Z,99.90
2019-03-25T01:52:57.131Z,99.90
2019-03-25T01:55:25.631Z,99.90
2019-03-25T01:57:54.094Z,99.90
2019-03-25T02:00:22.647Z,99.90
2019-03-25T02:02:51.164Z,99.90
2019-03-25T02:05:19.619Z,99.90
2019-03-25T02:07:48.103Z,99.90
2019-03-25T02:10:17.181Z,99.90
2019-03-25T02:12:45.718Z,99.90
2019-03-25T02:15:14.511Z,99.90
2019-03-25T02:17:43.008Z,99.90
2019-03-25T02:20:11.617Z,99.90
2019-03-25T02:22:40.218Z,99.90
2019-03-25T02:25:09.128Z,99.90
2019-03-25T02:27:37.673Z,99.90
2019-03-25T02:30:10.094Z,99.90
2019-03-25T02:32:38.618Z,99.90
2019-03-25T02:35:07.179Z,99.90
2019-03-25T02:37:35.636Z,99.90
2019-03-25T02:40:05.828Z,99.90
2019-03-25T02:42:34.311Z,99.90
2019-03-25T02:45:03.112Z,99.90
2019-03-25T02:47:31.577Z,99.90
2019-03-25T02:50:00.059Z,99.90
2019-03-25T02:52:28.542Z,99.90
2019-03-25T02:54:57.041Z,99.90
2019-03-25T02:57:25.508Z,99.90
2019-03-25T02:59:53.961Z,99.90
2019-03-25T03:02:22.428Z,99.90
2019-03-25T03:04:50.984Z,99.90
2019-03-25T03:07:19.515Z,99.90
2019-03-25T03:09:47.973Z,99.90
2019-03-25T03:12:16.454Z,99.90
2019-03-25T03:14:44.984Z,99.90
2019-03-25T03:17:13.517Z,99.90
2019-03-25T03:19:41.970Z,99.90
2019-03-25T03:22:10.504Z,99.90
2019-03-25T03:24:39.050Z,99.90
2019-03-25T03:27:07.584Z,99.90
2019-03-25T03:29:36.239Z,99.90
2019-03-25T03:32:04.779Z,99.90
2019-03-25T03:34:33.342Z,99.90
2019-03-25T03:37:01.874Z,99.90
2019-03-25T03:39:30.336Z,99.90
2019-03-25T03:41:59.591Z,99.90
2019-03-25T03:44:28.038Z,99.90
2019-03-25T03:46:56.666Z,99.90
2019-03-25T03:49:25.119Z,99.90
2019-03-25T03:51:55.226Z,99.90
2019-03-25T03:54:23.928Z,99.90
2019-03-25T03:56:54.884Z,99.90
2019-03-25T03:59:24.292Z,99.90
2019-03-25T04:01:52.760Z,99.90
2019-03-25T04:04:21.303Z,99.90
2019-03-25T04:06:49.842Z,99.90
2019-03-25T04:09:18.299Z,99.90
2019-03-25T04:11:46.764Z,99.90
2019-03-25T04:14:15.356Z,99.90
2019-03-25T04:16:43.799Z,99.90
2019-03-25T04:19:12.258Z,99.90
2019-03-25T04:21:40.719Z,99.90
2019-03-25T04:24:09.213Z,99.90
2019-03-25T04:26:37.663Z,99.90
2019-03-25T04:29:06.122Z,99.90
2019-03-25T04:31:34.588Z,99.90
2019-03-25T04:34:03.060Z,99.90
2019-03-25T04:36:31.588Z,99.90
2019-03-25T04:39:00.115Z,99.90
2019-03-25T04:41:28.581Z,99.90
2019-03-25T04:43:57.075Z,99.90
2019-03-25T04:46:25.530Z,99.90
2019-03-25T04:48:54.038Z,99.90
2019-03-25T04:51:22.497Z,99.90
2019-03-25T04:53:50.986Z,99.90
2019-03-25T04:56:19.438Z,99.90
2019-03-25T04:58:47.892Z,99.90
2019-03-25T05:01:16.391Z,99.90
2019-03-25T05:03:44.854Z,99.90
2019-03-25T05:06:13.319Z,99.90
2019-03-25T05:08:41.863Z,99.90
2019-03-25T05:11:10.331Z,99.90
2019-03-25T05:13:38.781Z,99.90
2019-03-25T05:16:07.249Z,99.90
2019-03-25T05:18:35.806Z,99.90
2019-03-25T05:21:04.268Z,99.90
2019-03-25T05:23:32.856Z,99.90
2019-03-25T05:26:01.338Z,99.90
2019-03-25T05:28:29.796Z,99.90
2019-03-25T05:30:58.292Z,99.90
2019-03-25T05:33:26.824Z,99.90
2019-03-25T05:35:55.319Z,99.90
2019-03-25T05:38:23.771Z,99.90
2019-03-25T05:40:52.235Z,99.90
2019-03-25T05:43:21.266Z,99.90
2019-03-25T05:45:49.982Z,99.90
2019-03-25T05:48:18.443Z,99.90
2019-03-25T05:50:46.896Z,99.90
2019-03-25T05:53:15.437Z,99.90
2019-03-25T05:55:43.993Z,99.90
2019-03-25T05:58:12.596Z,99.90
2019-03-25T06:00:41.530Z,99.90
2019-03-25T06:03:09.992Z,99.90
2019-03-25T06:05:38.450Z,99.90
2019-03-25T06:08:07.019Z,99.90
2019-03-25T06:10:35.475Z,99.90
2019-03-25T06:13:03.936Z,99.90
2019-03-25T06:15:32.494Z,99.90
2019-03-25T06:18:00.951Z,99.90
2019-03-25T06:20:29.411Z,99.90
2019-03-25T06:22:57.907Z,99.90
2019-03-25T06:25:26.350Z,99.90
2019-03-25T06:27:54.806Z,99.90
2019-03-25T06:30:23.416Z,99.90
2019-03-25T06:32:51.885Z,99.90
2019-03-25T06:35:20.347Z,99.90
2019-03-25T06:37:48.806Z,99.90
2019-03-25T06:40:17.335Z,99.90
2019-03-25T06:42:45.787Z,99.90
2019-03-25T06:45:15.089Z,99.90
2019-03-25T06:47:43.654Z,99.90
2019-03-25T06:50:12.347Z,99.90
2019-03-25T06:52:40.794Z,99.90
2019-03-25T06:55:09.906Z,99.90
2019-03-25T06:57:38.754Z,99.90
2019-03-25T07:00:09.379Z,99.90
2019-03-25T07:02:37.857Z,99.90
2019-03-25T07:05:07.454Z,99.90
2019-03-25T07:07:35.923Z,99.90
2019-03-25T07:10:06.110Z,99.90
2019-03-25T07:12:35.071Z,99.90
2019-03-25T07:15:04.401Z,99.90
2019-03-25T07:17:32.883Z,99.80
2019-03-25T07:20:01.410Z,99.20
2019-03-25T07:22:29.867Z,98.10
2019-03-25T07:24:58.338Z,97.70
2019-03-25T07:27:36.336Z,97.40
2019-03-25T07:29:57.079Z,97.10
2019-03-25T07:32:25.633Z,96.80
2019-03-25T07:34:54.088Z,96.70
2019-03-25T07:37:23.779Z,96.10
2019-03-25T07:39:52.430Z,96.00
2019-03-25T07:42:20.930Z,95.70
2019-03-25T07:44:49.466Z,95.60
2019-03-25T07:47:18.004Z,95.40
2019-03-25T07:49:46.546Z,95.00
2019-03-25T07:52:15.065Z,94.70
2019-03-25T07:54:43.565Z,94.70
2019-03-25T07:57:12.072Z,94.00
2019-03-25T07:59:40.527Z,93.40
2019-03-25T08:02:08.991Z,93.20
2019-03-25T08:04:38.747Z,93.10
2019-03-25T08:07:07.506Z,92.90
2019-03-25T08:09:36.044Z,93.00
2019-03-25T08:12:04.612Z,92.70
2019-03-25T08:14:33.060Z,92.40
2019-03-25T08:17:01.594Z,92.00
2019-03-25T08:19:30.065Z,91.40
2019-03-25T08:21:58.506Z,91.00
2019-03-25T08:24:26.953Z,90.50
2019-03-25T08:26:55.415Z,90.00
2019-03-25T08:29:23.881Z,89.40
2019-03-25T08:31:52.430Z,90.00
2019-03-25T08:34:20.887Z,90.10
2019-03-25T08:36:49.405Z,89.60
2019-03-25T08:39:17.866Z,89.10
2019-03-25T08:41:46.325Z,89.10
2019-03-25T08:44:14.803Z,88.50
2019-03-25T08:46:43.263Z,88.60
2019-03-25T08:49:12.090Z,87.90
2019-03-25T08:51:40.644Z,86.80
2019-03-25T08:54:09.093Z,87.30
2019-03-25T08:56:37.595Z,86.70
2019-03-25T08:59:06.293Z,86.60
2019-03-25T09:01:34.751Z,84.90
2019-03-25T09:04:03.238Z,84.80
2019-03-25T09:06:31.695Z,85.20
2019-03-25T09:09:00.147Z,85.00
2019-03-25T09:11:28.606Z,84.50
2019-03-25T09:13:57.074Z,84.20
2019-03-25T09:16:25.646Z,84.00
2019-03-25T09:18:54.162Z,83.80
2019-03-25T09:21:22.623Z,84.10
2019-03-25T09:24:10.498Z,83.20
2019-03-25T09:26:39.123Z,82.60
2019-03-25T09:29:07.639Z,82.40
2019-03-25T09:31:36.934Z,81.80
2019-03-25T09:34:06.276Z,81.00
2019-03-25T09:36:34.734Z,80.60
2019-03-25T09:39:04.836Z,79.40
2019-03-25T09:41:33.327Z,79.00
2019-03-25T09:44:01.784Z,78.60
2019-03-25T09:46:36.003Z,77.60
2019-03-25T09:49:04.645Z,77.10
2019-03-25T09:51:33.177Z,77.10
2019-03-25T09:54:01.633Z,77.00
2019-03-25T09:56:30.234Z,77.00
2019-03-25T09:58:58.719Z,77.20
2019-03-25T10:01:27.195Z,76.60
2019-03-25T10:03:55.731Z,76.00
2019-03-25T10:06:24.271Z,75.90
2019-03-25T10:08:52.731Z,76.50
2019-03-25T10:11:21.276Z,76.00
2019-03-25T10:13:49.743Z,76.40
2019-03-25T10:16:18.319Z,75.80
2019-03-25T10:18:46.841Z,75.20
2019-03-25T10:21:15.286Z,74.40
2019-03-25T10:23:43.920Z,73.70
2019-03-25T10:26:12.414Z,73.90
2019-03-25T10:28:48.689Z,73.80
2019-03-25T10:31:11.073Z,73.10
2019-03-25T10:33:39.620Z,73.30
2019-03-25T10:36:08.446Z,73.10
2019-03-25T10:38:36.913Z,73.10
2019-03-25T10:41:05.518Z,72.30
2019-03-25T10:43:33.966Z,72.00
2019-03-25T10:46:02.506Z,72.00
2019-03-25T10:48:33.863Z,72.40
2019-03-25T10:51:02.316Z,72.70
2019-03-25T10:53:30.775Z,73.10
2019-03-25T10:55:59.226Z,73.30
2019-03-25T10:58:27.817Z,73.70
2019-03-25T11:00:56.279Z,72.80
2019-03-25T11:03:24.771Z,72.50
2019-03-25T11:05:53.335Z,72.30
2019-03-25T11:08:21.857Z,71.90
2019-03-25T11:10:50.802Z,71.20
2019-03-25T11:13:19.435Z,70.40
2019-03-25T11:15:47.962Z,69.70
2019-03-25T11:18:16.424Z,69.20
2019-03-25T11:20:44.954Z,68.70
2019-03-25T11:23:13.507Z,67.60
2019-03-25T11:25:41.970Z,67.20
2019-03-25T11:28:12.234Z,66.80
2019-03-25T11:30:52.558Z,66.10
2019-03-25T11:33:21.487Z,66.20
2019-03-25T11:35:50.051Z,65.90
2019-03-25T11:38:18.944Z,65.70
2019-03-25T11:40:47.405Z,65.70
2019-03-25T11:43:15.861Z,65.50
2019-03-25T11:45:44.643Z,65.80
2019-03-25T11:48:13.673Z,65.50
2019-03-25T11:50:42.325Z,65.00
2019-03-25T11:53:10.774Z,64.30
2019-03-25T11:55:39.241Z,63.30
2019-03-25T11:58:07.706Z,63.20
2019-03-25T12:00:36.233Z,62.70
2019-03-25T12:03:04.757Z,62.50
2019-03-25T12:05:33.213Z,63.20
2019-03-25T12:08:01.674Z,65.00
2019-03-25T12:10:30.185Z,68.00
2019-03-25T12:12:58.714Z,70.20
2019-03-25T12:15:27.181Z,69.40
2019-03-25T12:17:55.731Z,70.20
2019-03-25T12:20:24.251Z,70.80
2019-03-25T12:22:52.713Z,69.90
2019-03-25T12:25:21.179Z,69.20
2019-03-25T12:27:49.737Z,67.90
2019-03-25T12:30:18.440Z,67.10
2019-03-25T12:32:46.971Z,66.70
2019-03-25T12:35:15.642Z,67.00
2019-03-25T12:37:44.672Z,66.70
2019-03-25T12:40:13.200Z,65.70
2019-03-25T12:42:41.686Z,62.90
2019-03-25T12:45:10.670Z,60.00
2019-03-25T12:47:39.155Z,57.30
2019-03-25T12:50:09.023Z,54.70
2019-03-25T12:52:37.479Z,53.60
2019-03-25T12:55:06.382Z,51.60
2019-03-25T12:57:34.829Z,50.10
2019-03-25T13:00:04.963Z,48.60
2019-03-25T13:02:33.481Z,47.40
2019-03-25T13:05:01.942Z,47.50
2019-03-25T13:07:30.398Z,47.20
2019-03-25T13:09:58.858Z,46.80
2019-03-25T13:12:27.324Z,46.60
2019-03-25T13:14:55.860Z,46.50
2019-03-25T13:17:24.331Z,46.60
2019-03-25T13:19:52.897Z,45.70
2019-03-25T13:22:21.445Z,45.60
2019-03-25T13:24:49.910Z,46.40
2019-03-25T13:27:18.366Z,47.10
2019-03-25T13:29:52.440Z,47.80
2019-03-25T13:32:17.172Z,47.60
2019-03-25T13:34:45.647Z,48.80
2019-03-25T13:37:14.114Z,50.40
2019-03-25T13:39:42.599Z,51.70
2019-03-25T13:42:11.327Z,52.90
2019-03-25T13:44:39.777Z,54.30
2019-03-25T13:47:08.275Z,56.30
2019-03-25T13:49:36.741Z,60.20
2019-03-25T13:52:05.201Z,65.30
2019-03-25T13:54:33.675Z,69.10
2019-03-25T13:57:02.334Z,75.40
2019-03-25T13:59:30.785Z,81.70
2019-03-25T14:01:59.251Z,83.40
2019-03-25T14:04:27.950Z,86.50
2019-03-25T14:06:56.447Z,92.20
2019-03-25T14:09:24.978Z,95.30
2019-03-25T14:11:53.707Z,97.30
2019-03-25T14:14:22.190Z,97.60
2019-03-25T14:16:50.637Z,98.40
2019-03-25T14:19:19.099Z,98.40
2019-03-25T14:21:47.597Z,98.70
2019-03-25T14:24:16.127Z,98.80
2019-03-25T14:26:44.582Z,99.10
2019-03-25T14:29:19.111Z,99.20
2019-03-25T14:31:47.555Z,99.50
2019-03-25T14:34:16.014Z,99.70
2019-03-25T14:36:44.602Z,99.70
2019-03-25T14:39:13.060Z,99.40
2019-03-25T14:41:41.501Z,99.50
2019-03-25T14:44:10.343Z,99.10
2019-03-25T14:46:38.807Z,99.00
2019-03-25T14:49:08.974Z,99.00
2019-03-25T14:51:37.516Z,99.20
2019-03-25T14:54:06.378Z,99.40
2019-03-25T14:56:35.706Z,99.50
2019-03-25T14:59:04.155Z,99.90
2019-03-25T15:01:32.633Z,99.90
2019-03-25T15:04:01.085Z,99.90
2019-03-25T15:06:29.530Z,99.90
2019-03-25T15:08:57.973Z,99.90
2019-03-25T15:11:26.495Z,99.90
2019-03-25T15:13:55.050Z,99.90
2019-03-25T15:16:23.497Z,99.90
2019-03-25T15:18:51.960Z,99.90
2019-03-25T15:21:20.502Z,99.90
2019-03-25T15:23:48.959Z,99.90
2019-03-25T15:26:17.442Z,99.90
2019-03-25T15:28:45.910Z,99.90
2019-03-25T15:31:14.443Z,99.90
2019-03-25T15:33:42.964Z,99.90
2019-03-25T15:36:11.437Z,99.90
2019-03-25T15:38:40.010Z,99.90
2019-03-25T15:41:08.620Z,99.90
2019-03-25T15:43:37.061Z,99.90
2019-03-25T15:46:05.556Z,99.90
2019-03-25T15:48:34.006Z,99.90
2019-03-25T15:51:02.470Z,99.90
2019-03-25T15:53:30.955Z,99.90
2019-03-25T15:55:59.406Z,99.90
2019-03-25T15:58:27.965Z,99.90
2019-03-25T16:00:56.558Z,99.90
2019-03-25T16:03:25.116Z,99.90
2019-03-25T16:05:53.583Z,99.90
2019-03-25T16:08:22.046Z,99.90
2019-03-25T16:10:51.728Z,99.90
2019-03-25T16:13:20.806Z,99.90
2019-03-25T16:15:49.353Z,99.90
2019-03-25T16:18:37.683Z,99.90
2019-03-25T16:21:06.487Z,99.90
2019-03-25T16:23:35.155Z,99.90
2019-03-25T16:26:03.822Z,99.90
2019-03-25T16:28:32.549Z,99.90
2019-03-25T16:31:01.264Z,99.90
2019-03-25T16:33:29.863Z,99.90
2019-03-25T16:35:58.330Z,99.90
2019-03-25T16:38:26.826Z,99.90
2019-03-25T16:40:55.646Z,99.90
2019-03-25T16:43:24.089Z,99.90
2019-03-25T16:45:52.573Z,99.90
2019-03-25T16:48:21.060Z,99.90
2019-03-25T16:50:49.555Z,99.90
2019-03-25T16:53:18.105Z,99.90
2019-03-25T16:55:46.553Z,99.90
2019-03-25T16:58:15.227Z,99.90
2019-03-25T17:00:43.756Z,99.90
2019-03-25T17:03:12.352Z,99.90
2019-03-25T17:05:42.411Z,99.90
2019-03-25T17:08:11.419Z,99.90
2019-03-25T17:10:39.864Z,99.90
2019-03-25T17:13:08.401Z,99.90
2019-03-25T17:15:37.099Z,99.90
2019-03-25T17:18:05.737Z,99.90
2019-03-25T17:20:34.266Z,99.90
2019-03-25T17:23:22.578Z,99.90
2019-03-25T17:25:53.229Z,99.90
2019-03-25T17:28:21.525Z,99.90
2019-03-25T17:30:50.390Z,99.90
2019-03-25T17:33:18.837Z,99.90
2019-03-25T17:35:47.289Z,99.90
2019-03-25T17:38:15.805Z,99.90
2019-03-25T17:40:44.336Z,99.90
2019-03-25T17:43:12.867Z,99.90
2019-03-25T17:45:41.497Z,99.90
2019-03-25T17:48:10.038Z,99.90
2019-03-25T17:50:38.565Z,99.90
2019-03-25T17:53:07.047Z,99.90
2019-03-25T17:55:35.989Z,99.90
2019-03-25T17:58:04.505Z,99.90
2019-03-25T18:00:44.588Z,99.90
2019-03-25T18:03:15.242Z,99.90
2019-03-25T18:05:43.274Z,99.90
2019-03-25T18:08:11.739Z,99.90
2019-03-25T18:10:40.285Z,99.90
2019-03-25T18:13:08.826Z,99.90
2019-03-25T18:15:37.406Z,99.90
2019-03-25T18:18:06.168Z,99.90
2019-03-25T18:20:34.697Z,99.90
2019-03-25T18:23:03.246Z,99.90
2019-03-25T18:25:32.068Z,99.90
2019-03-25T18:28:00.591Z,99.90
2019-03-25T18:30:33.851Z,99.90
2019-03-25T18:33:02.481Z,99.90
2019-03-25T18:35:30.980Z,99.90
2019-03-25T18:37:59.434Z,99.90
2019-03-25T18:40:27.942Z,99.90
2019-03-25T18:42:56.495Z,99.90
2019-03-25T18:45:25.290Z,99.90
2019-03-25T18:47:53.897Z,99.90
2019-03-25T18:50:22.412Z,99.90
2019-03-25T18:52:51.008Z,99.90
2019-03-25T18:55:19.549Z,99.90
2019-03-25T18:57:47.997Z,99.90
2019-03-25T19:00:33.535Z,99.90
2019-03-25T19:03:02.561Z,99.90
2019-03-25T19:05:31.650Z,99.90
2019-03-25T19:08:04.017Z,99.90
2019-03-25T19:10:32.965Z,99.90
2019-03-25T19:13:01.547Z,99.90
2019-03-25T19:15:30.355Z,99.90
2019-03-25T19:17:58.904Z,99.90
2019-03-25T19:20:27.567Z,99.90
2019-03-25T19:22:56.098Z,99.90
2019-03-25T19:25:24.597Z,99.90
2019-03-25T19:27:53.116Z,99.90
2019-03-25T19:30:21.630Z,99.90
2019-03-25T19:32:50.159Z,99.90
2019-03-25T19:35:18.686Z,99.90
2019-03-25T19:37:47.213Z,99.90
2019-03-25T19:40:15.711Z,99.90
2019-03-25T19:42:44.259Z,99.90
2019-03-25T19:45:13.722Z,99.90
2019-03-25T19:47:42.300Z,99.90
2019-03-25T19:50:11.946Z,99.90
2019-03-25T19:52:40.405Z,99.90
2019-03-25T19:55:09.412Z,99.90
2019-03-25T19:57:37.925Z,99.90
2019-03-25T20:00:11.099Z,99.90
2019-03-25T20:02:39.592Z,99.90
2019-03-25T20:05:08.567Z,99.90
2019-03-25T20:07:37.390Z,99.90
2019-03-25T20:10:07.665Z,99.90
2019-03-25T20:12:36.195Z,99.90
2019-03-25T20:15:07.501Z,99.90
2019-03-25T20:17:35.961Z,99.90
2019-03-25T20:20:06.424Z,99.90
2019-03-25T20:22:35.003Z,99.90
2019-03-25T20:25:05.816Z,99.90
2019-03-25T20:27:34.309Z,99.90
2019-03-25T20:30:03.252Z,99.90
2019-03-25T20:32:32.304Z,99.90
2019-03-25T20:35:00.951Z,99.90
2019-03-25T20:37:29.405Z,99.90
2019-03-25T20:39:58.052Z,99.90
2019-03-25T20:42:27.104Z,99.90
2019-03-25T20:44:55.599Z,99.90
2019-03-25T20:47:24.049Z,99.90
2019-03-25T20:49:52.876Z,99.90
2019-03-25T20:52:24.343Z,99.90
2019-03-25T20:54:51.995Z,99.90
2019-03-25T20:57:20.498Z,99.90
2019-03-25T20:59:49.035Z,99.90
2019-03-25T21:02:17.550Z,99.90
2019-03-25T21:04:46.116Z,99.90
2019-03-25T21:07:14.777Z,99.90
2019-03-25T21:09:43.493Z,99.90
2019-03-25T21:12:11.956Z,99.90
2019-03-25T21:14:40.499Z,99.90
2019-03-25T21:17:09.021Z,99.90
2019-03-25T21:19:37.476Z,99.90
2019-03-25T21:22:05.949Z,99.90
2019-03-25T21:24:34.575Z,99.90
2019-03-25T21:27:04.014Z,99.90
2019-03-25T21:29:32.528Z,99.90
2019-03-25T21:32:00.985Z,99.90
2019-03-25T21:34:30.671Z,99.90
2019-03-25T21:36:59.189Z,99.90
2019-03-25T21:39:27.720Z,99.90
2019-03-25T21:41:56.294Z,99.90
2019-03-25T21:44:24.786Z,99.90
2019-03-25T21:46:53.525Z,99.90
2019-03-25T21:49:22.125Z,99.90
2019-03-25T21:51:50.680Z,99.90
2019-03-25T21:54:19.307Z,99.90
2019-03-25T21:56:48.089Z,99.90
2019-03-25T21:59:16.660Z,99.90
2019-03-25T22:01:45.381Z,99.90
2019-03-25T22:04:14.011Z,99.90
2019-03-25T22:06:42.456Z,99.90
2019-03-25T22:09:11.041Z,99.90
2019-03-25T22:11:39.675Z,99.90
2019-03-25T22:14:08.259Z,99.90
2019-03-25T22:16:36.717Z,99.90
2019-03-25T22:19:05.167Z,99.90
2019-03-25T22:21:33.629Z,99.90
2019-03-25T22:24:02.122Z,99.90
2019-03-25T22:26:30.577Z,99.90
2019-03-25T22:28:59.039Z,99.90
2019-03-25T22:31:27.496Z,99.90
2019-03-25T22:33:55.973Z,99.90
2019-03-25T22:36:24.481Z,99.90
2019-03-25T22:38:52.943Z,99.90
2019-03-25T22:41:21.433Z,99.90
2019-03-25T22:43:49.959Z,99.90
2019-03-25T22:46:18.498Z,99.90
2019-03-25T22:48:47.251Z,99.90
2019-03-25T22:51:15.881Z,99.90
2019-03-25T22:53:44.424Z,99.90
2019-03-25T22:56:12.872Z,99.90
2019-03-25T22:58:41.439Z,99.90
2019-03-25T23:01:10.044Z,99.90
2019-03-25T23:03:39.740Z,99.90
2019-03-25T23:06:08.478Z,99.90
2019-03-25T23:08:37.188Z,99.90
2019-03-25T23:11:05.643Z,99.90
2019-03-25T23:13:34.247Z,99.90
2019-03-25T23:16:02.787Z,99.90
2019-03-25T23:18:31.280Z,99.90
2019-03-25T23:20:59.746Z,99.90
2019-03-25T23:23:28.211Z,99.90
2019-03-25T23:25:56.667Z,99.90
2019-03-25T23:28:29.694Z,99.90
2019-03-25T23:30:58.155Z,99.90
2019-03-25T23:33:26.615Z,99.90
2019-03-25T23:35:55.069Z,99.90
2019-03-25T23:38:23.524Z,99.90
2019-03-25T23:40:51.976Z,99.90
2019-03-25T23:43:20.428Z,99.90
2019-03-25T23:45:48.873Z,99.90
2019-03-25T23:48:17.355Z,99.90
2019-03-25T23:50:45.858Z,99.90
2019-03-25T23:53:14.318Z,99.90
2019-03-25T23:55:42.767Z,99.90
2019-03-25T23:58:11.306Z,99.90
